Glencoe, Kentucky
Current Conditions -  °F | °C
As of 2:52 PM on Sunday 25 Jan 2015 (Local Time) from KCVG Reporting Station
Light Rain Light Rain  
Wind Chill: 33°   Ceiling: 3000
Heat Index: 40°   Visibility: 5mi
Dew Point: 36°   Wind: 10mph
Humidity: 86%   Direction: 140°SE
Pressure: 29.65"   Gusts: NA
Location:  38.71°N, 84.82°W
Report Text: KCVG 251952Z 14009KT 5SM -RA BR BKN030 OVC036 04/02 A2965 RMK AO2 SLP044 P0003 T00440022
Loading
Personal Weather Stations






























Interactive Weather Map New forecast layout! Learn more

10-Day Weather Forecast

Advertisements
Track Severe Weather on mobile